createdAt,value
2022-12-14T00:03:32.735Z,98305.47
2022-12-14T00:06:30.697Z,98316.56
2022-12-14T00:09:17.704Z,98310.75
2022-12-14T00:12:04.796Z,98314.50
2022-12-14T00:14:51.854Z,98313.41
2022-12-14T00:17:39.910Z,98318.16
2022-12-14T00:20:29.991Z,98307.03
2022-12-14T00:23:16.936Z,98306.31
2022-12-14T00:26:12.910Z,98289.59
2022-12-14T00:29:01.682Z,98288.22
2022-12-14T00:31:49.763Z,98270.53
2022-12-14T00:34:36.856Z,98278.22
2022-12-14T00:37:23.847Z,98264.97
2022-12-14T00:40:11.221Z,98254.47
2022-12-14T00:42:58.190Z,98259.13
2022-12-14T00:45:45.592Z,98258.03
2022-12-14T00:48:33.201Z,98263.28
2022-12-14T00:51:20.475Z,98242.91
2022-12-14T00:54:07.483Z,98240.81
2022-12-14T00:56:54.502Z,98240.22
2022-12-14T00:59:41.488Z,98236.59
2022-12-14T01:02:28.631Z,98247.56
2022-12-14T01:05:15.822Z,98246.72
2022-12-14T01:08:03.555Z,98239.03
2022-12-14T01:10:51.981Z,98246.34
2022-12-14T01:13:40.002Z,98239.25
2022-12-14T01:16:27.077Z,98236.09
2022-12-14T01:19:15.539Z,98227.63
2022-12-14T01:22:02.587Z,98227.16
2022-12-14T01:24:49.632Z,98222.34
2022-12-14T01:27:36.637Z,98214.91
2022-12-14T01:30:23.700Z,98217.47
2022-12-14T01:33:10.727Z,98217.47
2022-12-14T01:35:57.742Z,98212.13
2022-12-14T01:38:45.321Z,98214.50
2022-12-14T01:41:35.595Z,98210.78
2022-12-14T01:44:22.578Z,98216.34
2022-12-14T01:47:26.926Z,98212.44
2022-12-14T01:50:26.358Z,98214.16
2022-12-14T01:53:20.716Z,98222.91
2022-12-14T01:56:07.931Z,98221.50
2022-12-14T01:59:01.531Z,98204.09
2022-12-14T02:01:49.283Z,98223.78
2022-12-14T02:04:40.175Z,98211.63
2022-12-14T02:07:29.487Z,98198.94
2022-12-14T02:10:17.807Z,98199.88
2022-12-14T02:13:20.257Z,98184.25
2022-12-14T02:16:08.265Z,98183.09
2022-12-14T02:18:55.412Z,98168.47
2022-12-14T02:21:57.709Z,98175.50
2022-12-14T02:25:31.137Z,98187.41
2022-12-14T02:28:42.612Z,98187.56
2022-12-14T02:32:03.544Z,98194.28
2022-12-14T02:35:10.747Z,98197.81
2022-12-14T02:38:15.804Z,98191.34
2022-12-14T02:41:38.560Z,98181.25
2022-12-14T02:44:51.693Z,98176.72
2022-12-14T02:47:46.489Z,98151.34
2022-12-14T02:50:44.120Z,98156.59
2022-12-14T02:53:45.158Z,98155.28
2022-12-14T02:56:38.677Z,98132.06
2022-12-14T02:59:26.594Z,98123.19
2022-12-14T03:02:14.862Z,98128.16
2022-12-14T03:05:02.384Z,98145.16
2022-12-14T03:07:52.900Z,98129.84
2022-12-14T03:10:51.869Z,98122.25
2022-12-14T03:13:51.809Z,98108.22
2022-12-14T03:16:49.709Z,98117.41
2022-12-14T03:19:41.681Z,98116.34
2022-12-14T03:22:37.211Z,98117.69
2022-12-14T03:25:40.707Z,98120.88
2022-12-14T03:28:46.877Z,98117.78
2022-12-14T03:31:52.829Z,98116.25
2022-12-14T03:34:49.368Z,98089.09
2022-12-14T03:37:50.065Z,98111.78
2022-12-14T03:40:55.033Z,98104.25
2022-12-14T03:44:19.750Z,98110.56
2022-12-14T03:47:44.910Z,98112.31
2022-12-14T03:50:41.618Z,98093.44
2022-12-14T03:53:39.017Z,98092.13
2022-12-14T03:56:40.940Z,98089.75
2022-12-14T03:59:33.632Z,98104.22
2022-12-14T04:02:35.060Z,98098.13
2022-12-14T04:05:48.881Z,98085.09
2022-12-14T04:08:50.807Z,98105.47
2022-12-14T04:12:03.660Z,98117.28
2022-12-14T04:15:17.923Z,98094.22
2022-12-14T04:18:28.119Z,98086.16
2022-12-14T04:21:35.388Z,98086.81
2022-12-14T04:25:08.215Z,98054.97
2022-12-14T04:28:30.382Z,98036.94
2022-12-14T04:31:21.550Z,98004.91
2022-12-14T04:34:12.936Z,98013.50
2022-12-14T04:37:05.178Z,98037.16
2022-12-14T04:39:59.297Z,98018.81
2022-12-14T04:42:55.020Z,98017.13
2022-12-14T04:45:54.220Z,98015.22
2022-12-14T04:49:10.119Z,98026.34
2022-12-14T04:52:07.936Z,98051.75
2022-12-14T04:55:00.906Z,98046.69
2022-12-14T04:57:59.825Z,98019.44
2022-12-14T05:01:32.676Z,98030.00
2022-12-14T05:04:55.461Z,98033.78
2022-12-14T05:08:00.877Z,98027.78
2022-12-14T05:11:30.457Z,98027.94
2022-12-14T05:14:44.267Z,97999.38
2022-12-14T05:17:34.335Z,98033.28
2022-12-14T05:20:24.670Z,98029.50
2022-12-14T05:23:11.721Z,98001.72
2022-12-14T05:25:58.828Z,97997.09
2022-12-14T05:28:50.256Z,97984.97
2022-12-14T05:31:37.870Z,98010.66
2022-12-14T05:34:25.140Z,98017.91
2022-12-14T05:37:17.990Z,98015.81
2022-12-14T05:40:06.356Z,98030.59
2022-12-14T05:43:04.810Z,98016.34
2022-12-14T05:46:02.102Z,98006.16
2022-12-14T05:48:49.730Z,97987.44
2022-12-14T05:51:36.912Z,98003.94
2022-12-14T05:54:24.065Z,97993.22
2022-12-14T05:57:11.160Z,98000.78
2022-12-14T05:59:58.221Z,97993.41
2022-12-14T06:02:45.340Z,97980.81
2022-12-14T06:05:32.584Z,97977.44
2022-12-14T06:08:19.628Z,97977.50
2022-12-14T06:11:09.656Z,97967.16
2022-12-14T06:13:56.656Z,97988.19
2022-12-14T06:16:45.726Z,97983.41
2022-12-14T06:19:32.794Z,97980.31
2022-12-14T06:22:19.856Z,97969.88
2022-12-14T06:25:07.657Z,97948.13
2022-12-14T06:27:55.032Z,97983.22
2022-12-14T06:30:42.103Z,97978.25
2022-12-14T06:33:30.338Z,97983.00
2022-12-14T06:36:24.036Z,97983.00
2022-12-14T06:39:13.920Z,97987.06
2022-12-14T06:42:00.947Z,97983.88
2022-12-14T06:44:48.005Z,97990.81
2022-12-14T06:47:35.150Z,97959.38
2022-12-14T06:50:22.382Z,97977.75
2022-12-14T06:53:13.533Z,97958.78
2022-12-14T06:56:12.166Z,97957.94
2022-12-14T06:58:59.239Z,97977.84
2022-12-14T07:01:49.745Z,97973.09
2022-12-14T07:04:37.384Z,97946.72
2022-12-14T07:07:24.517Z,97960.91
2022-12-14T07:10:13.007Z,97963.94
2022-12-14T07:13:00.155Z,97963.09
2022-12-14T07:15:55.490Z,97958.50
2022-12-14T07:18:42.759Z,97968.81
2022-12-14T07:21:29.790Z,97973.41
2022-12-14T07:24:17.030Z,97966.66
2022-12-14T07:27:04.537Z,97959.25
2022-12-14T07:29:52.428Z,97952.22
2022-12-14T07:32:39.463Z,97953.16
2022-12-14T07:35:26.563Z,97949.41
2022-12-14T07:38:13.756Z,97930.06
2022-12-14T07:41:10.800Z,97926.53
2022-12-14T07:44:00.006Z,97941.81
2022-12-14T07:46:47.468Z,97934.03
2022-12-14T07:49:34.542Z,97905.72
2022-12-14T07:52:21.719Z,97924.09
2022-12-14T07:55:09.442Z,97942.97
2022-12-14T07:57:56.534Z,97936.56
2022-12-14T08:00:43.552Z,97933.06
2022-12-14T08:03:31.090Z,97925.56
2022-12-14T08:06:20.381Z,97930.75
2022-12-14T08:09:10.432Z,97936.66
2022-12-14T08:11:57.453Z,97923.19
2022-12-14T08:14:44.558Z,97922.34
2022-12-14T08:17:32.497Z,97937.53
2022-12-14T08:20:19.726Z,97929.94
2022-12-14T08:23:06.920Z,97932.94
2022-12-14T08:25:55.469Z,97932.38
2022-12-14T08:28:42.549Z,97917.75
2022-12-14T08:31:29.853Z,97934.22
2022-12-14T08:34:22.889Z,97939.28
2022-12-14T08:37:10.580Z,97922.19
2022-12-14T08:39:59.466Z,97934.63
2022-12-14T08:42:50.440Z,97927.69
2022-12-14T08:45:39.718Z,97919.03
2022-12-14T08:48:27.189Z,97924.22
2022-12-14T08:51:14.260Z,97918.19
2022-12-14T08:54:01.382Z,97921.69
2022-12-14T08:56:49.197Z,97904.84
2022-12-14T09:00:00.656Z,97911.28
2022-12-14T09:02:43.732Z,97916.75
2022-12-14T09:05:31.182Z,97908.22
2022-12-14T09:08:18.203Z,97904.69
2022-12-14T09:11:06.801Z,97912.56
2022-12-14T09:13:54.813Z,97912.88
2022-12-14T09:16:42.259Z,97899.06
2022-12-14T09:19:30.073Z,97902.56
2022-12-14T09:22:17.212Z,97874.97
2022-12-14T09:25:04.817Z,97873.91
2022-12-14T09:27:51.932Z,97890.53
2022-12-14T09:30:38.992Z,97893.81
2022-12-14T09:33:27.722Z,97892.41
2022-12-14T09:36:20.491Z,97881.56
2022-12-14T09:39:08.176Z,97864.50
2022-12-14T09:42:35.725Z,97871.00
2022-12-14T09:45:32.370Z,97853.53
2022-12-14T09:48:25.184Z,97848.16
2022-12-14T09:51:21.549Z,97839.81
2022-12-14T09:54:15.356Z,97843.63
2022-12-14T09:57:10.733Z,97840.97
2022-12-14T09:59:57.772Z,97839.81
2022-12-14T10:03:06.897Z,97852.50
2022-12-14T10:06:22.621Z,97820.13
2022-12-14T10:09:24.479Z,97812.44
2022-12-14T10:12:41.130Z,97823.94
2022-12-14T10:15:40.867Z,97820.13
2022-12-14T10:19:05.970Z,97812.63
2022-12-14T10:22:00.635Z,97811.13
2022-12-14T10:25:13.786Z,97782.69
2022-12-14T10:28:12.711Z,97776.06
2022-12-14T10:31:02.727Z,97774.44
2022-12-14T10:33:51.879Z,97763.06
2022-12-14T10:36:51.755Z,97759.91
2022-12-14T10:40:13.041Z,97759.25
2022-12-14T10:43:23.517Z,97761.66
2022-12-14T10:46:42.944Z,97756.91
2022-12-14T10:49:49.589Z,97757.81
2022-12-14T10:52:41.756Z,97734.34
2022-12-14T10:55:53.103Z,97725.75
2022-12-14T10:58:40.530Z,97717.13
2022-12-14T11:01:27.870Z,97700.56
2022-12-14T11:04:50.666Z,97693.41
2022-12-14T11:07:40.676Z,97680.69
2022-12-14T11:10:30.376Z,97691.34
2022-12-14T11:13:20.985Z,97693.03
2022-12-14T11:16:36.697Z,97687.19
2022-12-14T11:19:26.568Z,97679.63
2022-12-14T11:22:22.037Z,97697.72
2022-12-14T11:25:32.819Z,97686.00
2022-12-14T11:28:22.488Z,97687.19
2022-12-14T11:31:23.214Z,97679.88
2022-12-14T11:34:30.183Z,97678.78
2022-12-14T11:37:31.025Z,97681.53
2022-12-14T11:40:27.799Z,97669.66
2022-12-14T11:43:40.419Z,97666.06
2022-12-14T11:47:00.492Z,97637.66
2022-12-14T11:49:51.004Z,97622.91
2022-12-14T11:52:38.029Z,97651.56
2022-12-14T11:55:28.366Z,97630.22
2022-12-14T11:58:20.097Z,97644.97
2022-12-14T12:01:18.828Z,97609.81
2022-12-14T12:04:15.132Z,97603.22
2022-12-14T12:07:23.075Z,97597.94
2022-12-14T12:10:13.118Z,97617.47
2022-12-14T12:13:02.233Z,97609.09
2022-12-14T12:16:00.818Z,97594.81
2022-12-14T12:18:53.754Z,97581.38
2022-12-14T12:21:43.010Z,97580.53
2022-12-14T12:25:08.302Z,97583.50
2022-12-14T12:28:00.707Z,97549.25
2022-12-14T12:30:53.274Z,97552.31
2022-12-14T12:34:02.921Z,97587.66
2022-12-14T12:37:24.218Z,97587.16
2022-12-14T12:40:03.642Z,97577.94
2022-12-14T12:42:58.995Z,97566.41
2022-12-14T12:45:51.628Z,97573.31
2022-12-14T12:48:46.241Z,97560.25
2022-12-14T12:52:07.538Z,97542.00
2022-12-14T12:55:17.486Z,97555.88
2022-12-14T12:58:10.075Z,97539.13
2022-12-14T13:01:02.356Z,97526.06
2022-12-14T13:03:53.217Z,97532.91
2022-12-14T13:06:48.877Z,97526.66
2022-12-14T13:09:43.421Z,97518.97
2022-12-14T13:12:36.701Z,97509.25
2022-12-14T13:15:46.970Z,97503.25
2022-12-14T13:18:59.555Z,97515.25
2022-12-14T13:21:50.329Z,97509.97
2022-12-14T13:24:37.508Z,97492.56
2022-12-14T13:27:36.259Z,97512.22
2022-12-14T13:30:29.633Z,97483.31
2022-12-14T13:33:55.628Z,97482.16
2022-12-14T13:37:00.688Z,97484.78
2022-12-14T13:40:23.192Z,97483.56
2022-12-14T13:43:19.218Z,97463.28
2022-12-14T13:46:17.452Z,97459.81
2022-12-14T13:49:08.998Z,97461.50
2022-12-14T13:51:56.883Z,97461.78
2022-12-14T13:54:47.482Z,97475.91
2022-12-14T13:57:34.520Z,97459.94
2022-12-14T14:00:40.398Z,97489.69
2022-12-14T14:03:37.316Z,97501.00
2022-12-14T14:06:38.634Z,97516.84
2022-12-14T14:09:34.886Z,97514.03
2022-12-14T14:12:38.576Z,97534.00
2022-12-14T14:15:34.489Z,97498.56
2022-12-14T14:18:28.998Z,97476.75
2022-12-14T14:21:22.299Z,97495.84
2022-12-14T14:24:15.914Z,97534.31
2022-12-14T14:27:20.520Z,97509.59
2022-12-14T14:30:29.241Z,97479.97
2022-12-14T14:33:47.367Z,97506.25
2022-12-14T14:36:37.234Z,97515.88
2022-12-14T14:39:55.821Z,97524.84
2022-12-14T14:42:46.659Z,97526.81
2022-12-14T14:45:36.133Z,97530.31
2022-12-14T14:48:28.391Z,97465.69
2022-12-14T14:51:34.635Z,97437.91
2022-12-14T14:57:57.881Z,97463.91
2022-12-14T15:00:53.901Z,97462.25
2022-12-14T15:03:58.050Z,97498.44
2022-12-14T15:06:51.103Z,97512.66
2022-12-14T15:09:48.324Z,97504.50
2022-12-14T15:12:43.163Z,97520.19
2022-12-14T15:15:47.972Z,97513.75
2022-12-14T15:18:35.123Z,97499.41
2022-12-14T15:21:22.356Z,97517.50
2022-12-14T15:24:13.319Z,97497.38
2022-12-14T15:27:27.832Z,97474.47
2022-12-14T15:30:27.132Z,97497.91
2022-12-14T15:33:25.569Z,97521.63
2022-12-14T15:36:16.870Z,97534.59
2022-12-14T15:39:04.431Z,97510.09
2022-12-14T15:41:51.489Z,97503.38
2022-12-14T15:44:43.833Z,97494.91
2022-12-14T15:47:31.433Z,97519.09
2022-12-14T15:50:26.480Z,97517.78
2022-12-14T15:53:19.026Z,97530.19
2022-12-14T15:56:39.938Z,97534.69
2022-12-14T15:59:32.747Z,97516.72
2022-12-14T16:02:32.972Z,97511.94
2022-12-14T16:05:22.589Z,97536.72
2022-12-14T16:08:11.456Z,97506.84
2022-12-14T16:11:01.893Z,97497.25
2022-12-14T16:13:50.283Z,97501.91
2022-12-14T16:16:37.572Z,97509.75
2022-12-14T16:19:31.234Z,97525.16
2022-12-14T16:22:24.680Z,97526.66
2022-12-14T16:25:16.986Z,97534.09
2022-12-14T16:28:40.100Z,97537.00
2022-12-14T16:31:27.986Z,97528.84
2022-12-14T16:34:19.611Z,97528.13
2022-12-14T16:37:31.433Z,97507.56
2022-12-14T16:40:31.063Z,97502.63
2022-12-14T16:43:34.264Z,97516.34
2022-12-14T16:46:21.821Z,97508.44
2022-12-14T16:49:21.826Z,97522.72
2022-12-14T16:52:16.861Z,97523.03
2022-12-14T16:55:12.465Z,97505.59
2022-12-14T16:57:59.605Z,97502.34
2022-12-14T17:01:00.772Z,97503.91
2022-12-14T17:04:04.368Z,97513.50
2022-12-14T17:06:53.020Z,97504.50
2022-12-14T17:09:40.510Z,97488.66
2022-12-14T17:12:28.347Z,97487.41
2022-12-14T17:15:17.855Z,97489.31
2022-12-14T17:18:09.260Z,97493.41
2022-12-14T17:20:58.234Z,97494.63
2022-12-14T17:23:45.948Z,97493.63
2022-12-14T17:26:33.580Z,97494.97
2022-12-14T17:29:25.708Z,97498.09
2022-12-14T17:32:15.111Z,97501.63
2022-12-14T17:35:03.996Z,97497.03
2022-12-14T17:37:51.787Z,97507.81
2022-12-14T17:40:39.804Z,97497.50
2022-12-14T17:43:28.359Z,97492.16
2022-12-14T17:46:16.288Z,97511.09
2022-12-14T17:49:06.789Z,97527.41
2022-12-14T17:51:54.665Z,97511.47
2022-12-14T17:54:42.318Z,97524.53
2022-12-14T17:57:29.717Z,97505.47
2022-12-14T18:00:42.190Z,97519.50
2022-12-14T18:03:32.793Z,97528.25
2022-12-14T18:06:22.555Z,97535.19
2022-12-14T18:09:11.402Z,97512.53
2022-12-14T18:12:22.617Z,97543.09
2022-12-14T18:15:38.521Z,97543.19
2022-12-14T18:18:28.815Z,97556.59
2022-12-14T18:21:20.897Z,97557.81
2022-12-14T18:24:15.457Z,97580.03
2022-12-14T18:27:03.646Z,97560.38
2022-12-14T18:29:51.446Z,97569.16
2022-12-14T18:32:39.479Z,97570.91
2022-12-14T18:35:30.884Z,97573.16
2022-12-14T18:38:19.758Z,97588.22
2022-12-14T18:41:07.652Z,97595.28
2022-12-14T18:43:56.560Z,97590.00
2022-12-14T18:46:49.410Z,97583.19
2022-12-14T18:49:37.809Z,97596.78
2022-12-14T18:52:25.981Z,97602.44
2022-12-14T18:55:22.151Z,97614.59
2022-12-14T18:58:16.157Z,97602.13
2022-12-14T19:01:05.096Z,97613.66
2022-12-14T19:03:53.846Z,97614.63
2022-12-14T19:06:44.620Z,97600.09
2022-12-14T19:09:33.761Z,97607.44
2022-12-14T19:12:22.217Z,97599.31
2022-12-14T19:15:22.069Z,97614.44
2022-12-14T19:18:10.368Z,97609.56
2022-12-14T19:21:01.535Z,97602.91
2022-12-14T19:23:50.314Z,97596.41
2022-12-14T19:26:40.287Z,97601.81
2022-12-14T19:29:28.790Z,97594.38
2022-12-14T19:32:17.398Z,97595.69
2022-12-14T19:35:06.246Z,97582.25
2022-12-14T19:37:56.273Z,97607.31
2022-12-14T19:40:47.240Z,97598.44
2022-12-14T19:43:36.880Z,97604.22
2022-12-14T19:46:25.468Z,97589.94
2022-12-14T19:49:15.440Z,97602.88
2022-12-14T19:52:04.217Z,97582.16
2022-12-14T19:54:52.752Z,97608.75
2022-12-14T19:57:41.626Z,97595.81
2022-12-14T20:00:31.961Z,97615.25
2022-12-14T20:03:22.188Z,97619.53
2022-12-14T20:06:13.247Z,97624.47
2022-12-14T20:09:10.086Z,97626.88
2022-12-14T20:12:00.522Z,97626.16
2022-12-14T20:14:49.487Z,97626.38
2022-12-14T20:17:39.718Z,97639.56
2022-12-14T20:20:29.950Z,97629.00
2022-12-14T20:23:18.212Z,97629.50
2022-12-14T20:26:09.299Z,97626.41
2022-12-14T20:29:01.975Z,97613.09
2022-12-14T20:31:50.429Z,97628.53
2022-12-14T20:34:40.060Z,97642.94
2022-12-14T20:37:28.083Z,97620.88
2022-12-14T20:40:17.700Z,97625.22
2022-12-14T20:43:06.754Z,97652.53
2022-12-14T20:45:54.940Z,97635.59
2022-12-14T20:48:42.483Z,97630.56
2022-12-14T20:51:32.939Z,97645.69
2022-12-14T20:54:22.408Z,97643.53
2022-12-14T20:57:10.330Z,97631.41
2022-12-14T20:59:59.489Z,97631.91
2022-12-14T21:02:47.908Z,97647.00
2022-12-14T21:05:43.121Z,97624.56
2022-12-14T21:08:31.918Z,97640.63
2022-12-14T21:11:38.100Z,97648.44
2022-12-14T21:14:28.819Z,97644.47
2022-12-14T21:17:17.177Z,97644.72
2022-12-14T21:20:06.554Z,97645.06
2022-12-14T21:22:54.029Z,97648.78
2022-12-14T21:25:41.804Z,97655.88
2022-12-14T21:28:32.207Z,97650.22
2022-12-14T21:31:19.982Z,97656.94
2022-12-14T21:34:08.489Z,97656.72
2022-12-14T21:36:55.869Z,97636.78
2022-12-14T21:39:47.584Z,97661.63
2022-12-14T21:42:39.618Z,97658.03
2022-12-14T21:45:26.853Z,97665.13
2022-12-14T21:48:13.962Z,97659.59
2022-12-14T21:51:17.167Z,97653.84
2022-12-14T21:54:04.441Z,97655.88
2022-12-14T21:57:10.956Z,97677.09
2022-12-14T21:59:58.128Z,97674.59
2022-12-14T22:02:45.459Z,97678.78
2022-12-14T22:05:32.783Z,97683.84
2022-12-14T22:08:19.947Z,97679.53
2022-12-14T22:11:06.981Z,97690.19
2022-12-14T22:13:54.192Z,97684.06
2022-12-14T22:16:41.704Z,97690.53
2022-12-14T22:19:29.020Z,97685.03
2022-12-14T22:22:16.991Z,97696.06
2022-12-14T22:25:06.396Z,97700.38
2022-12-14T22:27:53.373Z,97698.59
2022-12-14T22:30:40.481Z,97702.31
2022-12-14T22:33:28.761Z,97693.28
2022-12-14T22:36:17.218Z,97711.75
2022-12-14T22:39:04.577Z,97709.50
2022-12-14T22:41:51.613Z,97717.28
2022-12-14T22:44:39.091Z,97724.47
2022-12-14T22:47:26.113Z,97726.53
2022-12-14T22:50:13.187Z,97721.25
2022-12-14T22:53:00.261Z,97731.56
2022-12-14T22:55:49.868Z,97728.78
2022-12-14T22:58:41.293Z,97732.53
2022-12-14T23:01:29.302Z,97728.19
2022-12-14T23:04:16.640Z,97734.56
2022-12-14T23:07:03.913Z,97730.13
2022-12-14T23:10:09.835Z,97745.13
2022-12-14T23:13:15.898Z,97748.47
2022-12-14T23:16:21.972Z,97753.03
2022-12-14T23:19:27.590Z,97754.13
2022-12-14T23:22:33.300Z,97765.53
2022-12-14T23:25:38.946Z,97760.50
2022-12-14T23:28:44.656Z,97775.84
2022-12-14T23:31:55.694Z,97770.66
2022-12-14T23:35:01.398Z,97752.16
2022-12-14T23:38:07.210Z,97769.69
2022-12-14T23:41:20.444Z,97770.66
2022-12-14T23:44:26.291Z,97777.06
2022-12-14T23:47:32.051Z,97772.47
2022-12-14T23:50:37.762Z,97769.84
2022-12-14T23:53:43.317Z,97773.78
2022-12-14T23:56:55.467Z,97772.84
